Orcas, Washington
Current Conditions -  °F | °C
As of 2:53 PM on Saturday 20 Dec 2014 (Local Time) from KFHR Reporting Station
Light Rain Light Rain  
Wind Chill: 41°   Ceiling: 1200
Heat Index: 48°   Visibility: 10mi
Dew Point: 46°   Wind: 20mph
Humidity: 93%   Direction: 120°ESE
Pressure: 29.42"   Gusts: 26mph
Location:  48.6°N, 122.94°W
Report Text: KFHR 202253Z AUTO 12017G23KT 10SM -RA OVC012 09/08 A2942 RMK AO2 SLP961 P0002 T00890078
Loading
Personal Weather Stations






























Interactive Weather Map New forecast layout! Learn more

10-Day Weather Forecast

Advertisements
Track Severe Weather on mobile